Time;durP1;ratioP1;P1;durP2;ratioP2;P2;SDS_P1;SDS_P2;PMS_P1;PMS_P2;Temp;Humidity;BMP_temperature;BMP_pressure;BME280_temperature;BME280_humidity;BME280_pressure;Samples;Min_cycle;Max_cycle;Signal;HPM_P1;HPM_P2
2023/12/30 00:00:11;;;;;;;5.93;0.50;;;8.60;99.90;;;;;;5032570;28;20056;-76
2023/12/30 00:02:37;;;;;;;5.60;0.40;;;8.60;99.90;;;;;;5015556;28;20037;-75
2023/12/30 00:05:03;;;;;;;3.35;0.45;;;8.60;99.90;;;;;;5031626;28;20120;-76
2023/12/30 00:07:29;;;;;;;7.72;0.70;;;8.60;99.90;;;;;;5033255;28;20061;-75
2023/12/30 00:09:54;;;;;;;5.45;0.80;;;8.60;99.90;;;;;;5031459;28;20040;-75
2023/12/30 00:12:20;;;;;;;5.78;1.05;;;8.60;99.90;;;;;;5032170;28;20038;-75
2023/12/30 00:14:45;;;;;;;5.40;0.73;;;8.50;99.90;;;;;;5031093;28;20056;-78
2023/12/30 00:17:11;;;;;;;7.40;0.75;;;8.50;99.90;;;;;;5033176;28;20112;-76
2023/12/30 00:19:42;;;;;;;6.80;0.43;;;8.50;99.90;;;;;;5031309;28;20129;-75
2023/12/30 00:22:08;;;;;;;7.50;0.50;;;8.40;99.90;;;;;;5031877;28;20088;-75
2023/12/30 00:24:35;;;;;;;6.80;1.00;;;8.50;99.90;;;;;;5032348;28;20041;-75
2023/12/30 00:27:01;;;;;;;6.65;0.50;;;8.40;99.90;;;;;;5032276;28;20112;-75
2023/12/30 00:29:26;;;;;;;7.25;0.68;;;8.40;99.90;;;;;;5032440;28;20450;-75
2023/12/30 00:31:52;;;;;;;5.03;0.50;;;8.40;99.90;;;;;;5032968;28;20357;-75
2023/12/30 00:34:18;;;;;;;6.15;0.47;;;8.40;99.90;;;;;;5031845;28;20044;-75
2023/12/30 00:36:46;;;;;;;7.03;0.55;;;8.40;99.90;;;;;;5032120;28;20103;-75
2023/12/30 00:39:12;;;;;;;4.53;0.77;;;8.30;99.90;;;;;;5032489;28;20482;-74
2023/12/30 00:41:38;;;;;;;8.73;0.82;;;8.30;99.90;;;;;;5032330;28;20033;-77
2023/12/30 00:44:03;;;;;;;8.85;0.88;;;8.30;99.90;;;;;;5032584;28;20037;-75
2023/12/30 00:46:29;;;;;;;7.70;1.58;;;8.20;99.90;;;;;;5033005;28;20036;-82
2023/12/30 00:48:55;;;;;;;11.15;1.15;;;8.20;99.90;;;;;;5032899;28;20076;-83
2023/12/30 00:51:20;;;;;;;10.88;1.05;;;8.20;99.90;;;;;;5034760;28;20057;-81
2023/12/30 00:53:46;;;;;;;7.15;0.95;;;8.20;99.90;;;;;;5035319;28;20030;-84
2023/12/30 00:56:11;;;;;;;10.00;0.70;;;8.20;99.90;;;;;;5034645;28;20029;-84
2023/12/30 00:58:37;;;;;;;6.15;0.75;;;8.20;99.90;;;;;;5036232;28;20076;-84
2023/12/30 01:01:03;;;;;;;8.23;1.00;;;8.20;99.90;;;;;;5035929;28;20370;-83
2023/12/30 01:03:28;;;;;;;9.77;1.27;;;8.20;99.90;;;;;;5035685;28;20029;-83
2023/12/30 01:05:54;;;;;;;9.85;1.02;;;8.30;99.90;;;;;;5034568;28;20022;-83
2023/12/30 01:08:20;;;;;;;8.32;0.70;;;8.30;99.90;;;;;;5035866;28;20029;-83
2023/12/30 01:10:45;;;;;;;9.45;0.73;;;8.30;99.90;;;;;;5035500;28;20129;-83
2023/12/30 01:13:11;;;;;;;7.18;0.65;;;8.30;99.90;;;;;;5035636;28;20383;-83
2023/12/30 01:15:37;;;;;;;7.82;1.13;;;8.30;99.90;;;;;;5035201;28;20041;-83
2023/12/30 01:18:03;;;;;;;8.68;0.70;;;8.30;99.90;;;;;;5034543;28;20030;-83
2023/12/30 01:20:30;;;;;;;14.88;0.90;;;8.30;99.90;;;;;;5035668;28;20037;-83
2023/12/30 01:22:56;;;;;;;11.50;0.90;;;8.30;99.90;;;;;;5035635;28;20029;-82
2023/12/30 01:25:22;;;;;;;7.90;0.80;;;8.30;99.90;;;;;;5035648;28;20071;-84
2023/12/30 01:27:47;;;;;;;10.00;0.70;;;8.30;99.90;;;;;;5034765;28;20175;-83
2023/12/30 01:30:13;;;;;;;6.15;0.93;;;8.30;99.90;;;;;;5034130;28;20030;-83
2023/12/30 01:32:38;;;;;;;7.25;0.65;;;8.20;99.90;;;;;;5034815;28;20037;-83
2023/12/30 01:35:04;;;;;;;11.27;1.00;;;8.30;99.90;;;;;;5034111;28;20406;-83
2023/12/30 01:37:30;;;;;;;15.25;1.00;;;8.30;99.90;;;;;;5035296;28;20451;-83
2023/12/30 01:39:56;;;;;;;9.85;1.00;;;8.30;99.90;;;;;;5035330;28;20117;-82
2023/12/30 01:42:22;;;;;;;8.52;0.63;;;8.30;99.90;;;;;;5035336;28;20040;-82
2023/12/30 01:44:47;;;;;;;13.93;1.00;;;8.30;99.90;;;;;;5034236;28;20033;-83
2023/12/30 01:47:13;;;;;;;8.82;1.10;;;8.30;99.90;;;;;;5033993;28;20025;-83
2023/12/30 01:49:39;;;;;;;8.38;0.93;;;8.20;99.90;;;;;;5035260;28;20061;-84
2023/12/30 01:52:06;;;;;;;11.15;0.80;;;8.20;99.90;;;;;;5035435;28;20033;-84
2023/12/30 01:54:32;;;;;;;13.05;1.20;;;8.20;99.90;;;;;;5035199;28;20095;-83
2023/12/30 01:56:59;;;;;;;10.45;0.80;;;8.20;99.90;;;;;;5017786;28;20034;-83
2023/12/30 01:59:29;;;;;;;11.80;1.20;;;8.20;99.90;;;;;;5033823;28;20108;-84
2023/12/30 02:01:56;;;;;;;15.45;0.90;;;8.20;99.90;;;;;;5034374;28;20021;-83
2023/12/30 02:04:22;;;;;;;10.20;0.77;;;8.30;99.90;;;;;;5035254;28;20026;-82
2023/12/30 02:06:48;;;;;;;10.30;0.65;;;8.30;99.90;;;;;;5034195;28;20026;-83
2023/12/30 02:09:14;;;;;;;9.98;0.88;;;8.30;99.90;;;;;;5034033;28;20084;-83
2023/12/30 02:11:39;;;;;;;10.82;1.02;;;8.30;99.90;;;;;;5017526;28;20029;-83
2023/12/30 02:14:29;;;;;;;10.88;1.00;;;8.30;99.90;;;;;;5035797;28;20481;-83
2023/12/30 02:16:55;;;;;;;10.65;0.90;;;8.30;99.90;;;;;;5035420;28;20033;-83
2023/12/30 02:19:20;;;;;;;8.07;0.98;;;8.30;99.90;;;;;;5033820;28;20028;-84
2023/12/30 02:21:46;;;;;;;14.25;2.08;;;8.30;99.90;;;;;;5033644;28;20490;-83
2023/12/30 02:24:12;;;;;;;10.65;1.38;;;8.30;99.90;;;;;;5033412;28;20025;-84
2023/12/30 02:26:39;;;;;;;11.43;1.00;;;8.30;99.90;;;;;;5016818;28;20035;-83
2023/12/30 02:29:08;;;;;;;12.20;1.58;;;8.30;99.90;;;;;;5034987;28;20033;-83
2023/12/30 02:31:36;;;;;;;8.25;1.08;;;8.30;99.90;;;;;;5033487;28;20053;-83
2023/12/30 02:34:02;;;;;;;10.75;1.10;;;8.30;99.90;;;;;;5034680;28;20501;-83
2023/12/30 02:36:28;;;;;;;11.45;1.05;;;8.30;99.90;;;;;;5034168;28;20033;-83
2023/12/30 02:38:53;;;;;;;11.68;1.38;;;8.20;99.90;;;;;;5032829;28;20026;-83
2023/12/30 02:41:19;;;;;;;17.48;1.90;;;8.30;99.90;;;;;;5034494;28;20106;-83
2023/12/30 02:43:57;;;;;;;10.45;1.10;;;8.20;99.90;;;;;;5034267;28;20025;-83
2023/12/30 02:46:23;;;;;;;13.98;0.98;;;8.20;99.90;;;;;;5035166;28;20017;-83
2023/12/30 02:48:48;;;;;;;13.25;1.25;;;8.20;99.90;;;;;;5034179;28;20409;-82
2023/12/30 02:51:18;;;;;;;10.32;1.20;;;8.20;99.90;;;;;;5033259;28;20104;-83
2023/12/30 02:53:43;;;;;;;12.90;1.25;;;8.20;99.90;;;;;;5034249;28;20117;-83
2023/12/30 02:56:26;;;;;;;10.27;1.17;;;8.20;99.90;;;;;;5016888;28;20057;-83
2023/12/30 02:58:58;;;;;;;8.18;0.70;;;8.20;99.90;;;;;;5033059;28;20053;-83
2023/12/30 03:01:28;;;;;;;11.65;0.98;;;8.20;99.90;;;;;;5034299;28;20387;-82
2023/12/30 03:03:55;;;;;;;14.80;1.70;;;8.30;99.90;;;;;;5034073;28;20029;-83
2023/12/30 03:06:21;;;;;;;10.93;0.98;;;8.20;99.90;;;;;;5033669;28;20079;-83
2023/12/30 03:08:48;;;;;;;9.65;1.27;;;8.20;99.90;;;;;;5033584;28;20025;-83
2023/12/30 03:11:14;;;;;;;10.55;1.10;;;8.20;99.90;;;;;;5032649;28;20471;-84
2023/12/30 03:13:39;;;;;;;11.02;1.23;;;8.20;99.90;;;;;;5032447;28;20076;-83
2023/12/30 03:16:06;;;;;;;10.20;1.38;;;8.20;99.90;;;;;;5033697;28;20080;-84
2023/12/30 03:18:32;;;;;;;12.57;1.30;;;8.10;99.90;;;;;;5034199;28;20045;-83
2023/12/30 03:20:58;;;;;;;12.13;1.45;;;8.10;99.90;;;;;;5033551;28;20033;-83
2023/12/30 03:23:23;;;;;;;15.65;1.30;;;8.10;99.90;;;;;;5033718;28;20021;-84
2023/12/30 03:25:51;;;;;;;10.25;1.30;;;8.10;99.90;;;;;;5016962;28;20040;-84
2023/12/30 03:28:17;;;;;;;14.40;1.40;;;8.10;99.90;;;;;;5033295;28;20064;-83
2023/12/30 03:30:43;;;;;;;13.35;2.28;;;8.10;99.90;;;;;;5032281;28;20083;-83
2023/12/30 03:33:08;;;;;;;11.95;1.55;;;8.10;99.90;;;;;;5033442;28;20526;-83
2023/12/30 03:35:35;;;;;;;15.45;1.02;;;8.10;99.90;;;;;;5032277;28;20038;-83
2023/12/30 03:38:01;;;;;;;10.00;1.52;;;8.10;99.90;;;;;;5032206;28;20022;-83
2023/12/30 03:40:26;;;;;;;9.38;1.17;;;8.10;99.90;;;;;;5033286;28;20021;-83
2023/12/30 03:42:52;;;;;;;8.75;0.95;;;8.10;99.90;;;;;;5033752;28;20373;-83
2023/12/30 03:45:18;;;;;;;13.18;1.10;;;8.10;99.90;;;;;;5032367;28;20031;-83
2023/12/30 03:47:43;;;;;;;11.75;0.88;;;8.10;99.90;;;;;;5032103;28;20035;-84
2023/12/30 03:50:09;;;;;;;15.32;0.80;;;8.20;99.90;;;;;;5031863;28;20022;-83
2023/12/30 03:52:35;;;;;;;12.13;1.10;;;8.20;99.90;;;;;;5033651;28;20030;-83
2023/12/30 03:55:01;;;;;;;9.68;1.20;;;8.20;99.90;;;;;;5033837;28;20021;-83
2023/12/30 03:57:26;;;;;;;12.45;1.05;;;8.20;99.90;;;;;;5033409;28;20459;-83
2023/12/30 03:59:52;;;;;;;11.85;1.80;;;8.20;99.90;;;;;;5031937;28;20040;-83
2023/12/30 04:02:20;;;;;;;9.63;0.88;;;8.20;99.90;;;;;;5033677;28;20447;-83
2023/12/30 04:04:47;;;;;;;10.07;0.77;;;8.20;99.90;;;;;;5032926;28;20434;-83
2023/12/30 04:07:13;;;;;;;12.15;1.25;;;8.30;99.90;;;;;;5033695;28;20041;-83
2023/12/30 04:09:38;;;;;;;10.70;1.27;;;8.30;99.90;;;;;;5032773;28;20032;-84
2023/12/30 04:12:04;;;;;;;11.32;1.02;;;8.20;99.90;;;;;;5033109;28;20069;-84
2023/12/30 04:14:30;;;;;;;11.73;1.25;;;8.20;99.90;;;;;;5032780;28;20033;-83
2023/12/30 04:16:55;;;;;;;8.32;1.02;;;8.20;99.90;;;;;;5033621;28;20091;-83
2023/12/30 04:19:23;;;;;;;10.40;0.77;;;8.20;99.90;;;;;;5031593;28;20051;-83
2023/12/30 04:21:48;;;;;;;10.85;0.95;;;8.20;99.90;;;;;;5033316;28;20083;-84
2023/12/30 04:24:14;;;;;;;10.05;1.17;;;8.20;99.90;;;;;;5032945;28;20033;-83
2023/12/30 04:26:40;;;;;;;15.90;1.13;;;8.20;99.90;;;;;;5035133;28;20418;-83
2023/12/30 04:29:05;;;;;;;9.20;1.38;;;8.10;99.90;;;;;;5037880;28;20030;-83
2023/12/30 04:31:31;;;;;;;10.95;0.90;;;8.10;99.90;;;;;;5036829;28;20029;-83
2023/12/30 04:33:57;;;;;;;12.38;1.20;;;8.10;99.90;;;;;;5036751;28;20068;-84
2023/12/30 04:36:23;;;;;;;11.77;1.17;;;8.10;99.90;;;;;;5036716;28;20029;-83
2023/12/30 04:38:48;;;;;;;14.73;1.30;;;8.10;99.90;;;;;;5035230;28;20528;-84
2023/12/30 04:41:14;;;;;;;11.27;1.27;;;8.10;99.90;;;;;;5036511;28;20030;-83
2023/12/30 04:43:40;;;;;;;17.23;1.58;;;8.10;99.90;;;;;;5036703;28;20487;-83
2023/12/30 04:46:05;;;;;;;10.45;1.30;;;8.10;99.90;;;;;;5036360;28;20051;-83
2023/12/30 04:48:32;;;;;;;12.00;1.15;;;8.10;99.90;;;;;;5036444;28;20026;-83
2023/12/30 04:50:58;;;;;;;8.63;0.80;;;8.10;99.90;;;;;;5036537;28;20126;-83
2023/12/30 04:53:23;;;;;;;10.77;1.27;;;8.10;99.90;;;;;;5035990;28;20447;-83
2023/12/30 04:55:49;;;;;;;18.75;1.80;;;8.10;99.90;;;;;;5036069;28;20056;-83
2023/12/30 04:58:16;;;;;;;10.90;1.20;;;8.10;99.90;;;;;;5018649;28;20036;-83
2023/12/30 05:00:41;;;;;;;13.02;1.30;;;8.10;99.90;;;;;;5036633;28;20036;-83
2023/12/30 05:03:07;;;;;;;12.93;1.38;;;8.10;99.90;;;;;;5035256;28;20321;-83
2023/12/30 05:05:32;;;;;;;16.40;1.25;;;8.10;99.90;;;;;;5036866;28;20026;-83
2023/12/30 05:07:58;;;;;;;17.00;1.35;;;8.10;99.90;;;;;;5037298;28;20041;-82
2023/12/30 05:10:24;;;;;;;13.98;1.58;;;8.10;99.90;;;;;;5038205;28;20021;-83
2023/12/30 05:12:50;;;;;;;13.48;1.02;;;8.10;99.90;;;;;;5035452;28;20088;-83
2023/12/30 05:15:15;;;;;;;11.73;1.52;;;8.10;99.90;;;;;;5036844;28;20041;-83
2023/12/30 05:17:41;;;;;;;11.20;1.55;;;8.10;99.90;;;;;;5037851;28;20037;-83
2023/12/30 05:20:08;;;;;;;15.82;1.48;;;8.10;99.90;;;;;;5037948;28;20026;-83
2023/12/30 05:22:35;;;;;;;16.67;1.17;;;8.10;99.90;;;;;;5036786;28;20033;-83
2023/12/30 05:25:00;;;;;;;7.72;0.80;;;8.10;99.90;;;;;;5036945;28;20032;-82
2023/12/30 05:27:26;;;;;;;14.95;1.20;;;8.10;99.90;;;;;;5037365;28;20029;-83
2023/12/30 05:29:52;;;;;;;10.48;1.23;;;8.10;99.90;;;;;;5036786;28;20037;-83
2023/12/30 05:32:18;;;;;;;13.57;1.75;;;8.10;99.90;;;;;;5035926;28;20040;-83
2023/12/30 05:34:44;;;;;;;11.82;2.08;;;8.10;99.90;;;;;;5035912;28;20030;-82
2023/12/30 05:37:10;;;;;;;14.35;1.17;;;8.10;99.90;;;;;;5036159;28;20030;-83
2023/12/30 05:39:36;;;;;;;15.15;1.30;;;8.10;99.90;;;;;;5036204;28;20079;-83
2023/12/30 05:42:02;;;;;;;12.85;0.90;;;8.10;99.90;;;;;;5034115;28;20450;-83
2023/12/30 05:44:28;;;;;;;15.40;1.77;;;8.00;99.90;;;;;;5035331;28;20030;-83
2023/12/30 05:46:54;;;;;;;16.10;1.48;;;8.00;99.90;;;;;;5035776;28;20355;-83
2023/12/30 05:49:19;;;;;;;15.45;2.05;;;8.00;99.90;;;;;;5035080;28;20044;-84
2023/12/30 05:51:45;;;;;;;17.88;1.20;;;8.00;99.90;;;;;;5035205;28;20025;-83
2023/12/30 05:54:11;;;;;;;17.65;1.80;;;8.00;99.90;;;;;;5034192;28;20463;-83
2023/12/30 05:56:37;;;;;;;15.00;1.83;;;8.00;99.90;;;;;;5035678;28;20025;-83
2023/12/30 05:59:02;;;;;;;13.25;1.15;;;8.00;99.90;;;;;;5034024;28;20038;-83
2023/12/30 06:01:28;;;;;;;12.73;1.17;;;7.90;99.90;;;;;;5034939;28;20454;-82
2023/12/30 06:03:54;;;;;;;14.77;2.22;;;7.90;99.90;;;;;;5034889;28;20349;-83
2023/12/30 06:06:20;;;;;;;20.15;2.30;;;8.00;99.90;;;;;;5035231;28;20068;-83
2023/12/30 06:08:46;;;;;;;13.45;1.75;;;7.90;99.90;;;;;;5035387;28;20090;-83
2023/12/30 06:11:15;;;;;;;8.30;1.20;;;8.00;99.90;;;;;;5035078;28;20028;-83
2023/12/30 06:13:41;;;;;;;12.35;1.55;;;8.00;99.90;;;;;;5034806;28;20044;-83
2023/12/30 06:16:10;;;;;;;11.18;1.15;;;7.90;99.90;;;;;;5034907;28;20041;-83
2023/12/30 06:18:37;;;;;;;14.15;1.75;;;7.90;99.90;;;;;;5035327;28;20037;-84
2023/12/30 06:21:04;;;;;;;19.10;1.90;;;7.90;99.90;;;;;;5035649;28;20017;-83
2023/12/30 06:23:31;;;;;;;12.43;1.50;;;7.90;99.90;;;;;;5034608;28;20037;-84
2023/12/30 06:25:58;;;;;;;13.05;1.20;;;7.90;99.90;;;;;;5034494;28;20041;-84
2023/12/30 06:28:26;;;;;;;13.52;1.70;;;7.90;99.90;;;;;;5034882;28;20108;-83
2023/12/30 06:30:52;;;;;;;15.20;1.40;;;7.90;99.90;;;;;;5034991;28;20087;-84
2023/12/30 06:33:19;;;;;;;15.55;2.00;;;7.90;99.90;;;;;;5032892;28;20451;-84
2023/12/30 06:35:45;;;;;;;13.30;2.03;;;7.90;99.90;;;;;;5034636;28;20025;-83
2023/12/30 06:38:10;;;;;;;21.40;1.95;;;7.90;99.90;;;;;;5034718;28;20031;-83
2023/12/30 06:40:36;;;;;;;19.83;1.98;;;7.90;99.90;;;;;;5034792;28;20109;-83
2023/12/30 06:43:02;;;;;;;17.65;1.85;;;7.90;99.90;;;;;;5037591;28;20037;-82
2023/12/30 06:45:28;;;;;;;13.98;2.33;;;7.90;99.90;;;;;;5035171;28;20036;-82
2023/12/30 06:47:54;;;;;;;10.88;1.45;;;7.90;99.90;;;;;;5033745;28;20109;-83
2023/12/30 06:50:21;;;;;;;14.73;1.50;;;7.90;99.90;;;;;;5033148;28;20048;-83
2023/12/30 06:52:47;;;;;;;13.23;1.77;;;7.90;99.90;;;;;;5034148;28;20041;-83
2023/12/30 06:55:14;;;;;;;15.25;1.75;;;7.90;99.90;;;;;;5034355;28;20384;-83
2023/12/30 06:57:41;;;;;;;28.02;2.72;;;7.90;99.90;;;;;;5033700;28;20525;-83
2023/12/30 07:00:08;;;;;;;16.88;2.17;;;7.80;99.90;;;;;;5032670;28;20025;-83
2023/12/30 07:02:34;;;;;;;11.05;1.67;;;7.80;99.90;;;;;;5033664;28;20030;-84
2023/12/30 07:04:59;;;;;;;17.95;2.65;;;7.90;99.90;;;;;;5035462;28;20026;-82
2023/12/30 07:07:25;;;;;;;18.20;2.22;;;7.80;99.90;;;;;;5036000;28;20029;-83
2023/12/30 07:09:51;;;;;;;15.98;2.28;;;7.80;99.90;;;;;;5034517;28;20072;-83
2023/12/30 07:12:16;;;;;;;15.48;2.28;;;7.80;99.90;;;;;;5033563;28;20489;-83
2023/12/30 07:14:43;;;;;;;15.55;2.53;;;7.80;99.90;;;;;;5034516;28;20036;-83
2023/12/30 07:17:08;;;;;;;15.02;2.92;;;7.80;99.90;;;;;;5033879;28;20037;-83
2023/12/30 07:19:34;;;;;;;21.92;4.10;;;7.80;99.90;;;;;;5034089;28;20109;-83
2023/12/30 07:22:00;;;;;;;20.35;2.42;;;7.80;99.90;;;;;;5016048;28;20029;-82
2023/12/30 07:24:25;;;;;;;17.25;2.25;;;7.80;99.90;;;;;;5032226;28;20167;-83
2023/12/30 07:26:51;;;;;;;18.63;2.65;;;7.80;99.90;;;;;;5032472;28;20031;-83
2023/12/30 07:29:17;;;;;;;10.25;3.00;;;7.80;99.90;;;;;;5032785;28;20037;-83
2023/12/30 07:31:42;;;;;;;18.17;3.33;;;7.90;99.90;;;;;;5034103;28;20053;-82
2023/12/30 07:34:08;;;;;;;11.77;2.50;;;7.90;99.90;;;;;;5033447;28;20437;-77
2023/12/30 07:36:34;;;;;;;18.83;2.83;;;7.90;99.90;;;;;;5034104;28;20463;-78
2023/12/30 07:39:00;;;;;;;14.93;2.25;;;8.00;99.90;;;;;;5033770;28;20026;-81
2023/12/30 07:41:25;;;;;;;16.70;2.55;;;8.00;99.90;;;;;;5032476;28;20030;-82
2023/12/30 07:43:51;;;;;;;15.18;2.88;;;8.00;99.90;;;;;;5032722;28;20442;-81
2023/12/30 07:46:16;;;;;;;15.13;2.60;;;8.00;99.90;;;;;;5032542;28;20115;-81
2023/12/30 07:48:43;;;;;;;16.80;2.63;;;8.10;99.90;;;;;;5033619;28;20367;-81
2023/12/30 07:51:08;;;;;;;18.55;2.13;;;8.10;99.90;;;;;;5032955;28;20072;-81
2023/12/30 07:53:34;;;;;;;13.68;2.67;;;8.10;99.90;;;;;;5032501;28;20069;-81
2023/12/30 07:56:00;;;;;;;16.80;2.63;;;8.10;99.90;;;;;;5033323;28;20045;-81
2023/12/30 07:58:25;;;;;;;14.70;2.17;;;8.10;99.90;;;;;;5032558;28;20021;-82
2023/12/30 08:00:51;;;;;;;17.05;2.08;;;8.10;99.90;;;;;;5034890;28;20478;-76
2023/12/30 08:03:17;;;;;;;12.20;2.33;;;8.10;99.90;;;;;;5036565;28;20042;-78
2023/12/30 08:05:42;;;;;;;19.55;2.45;;;8.10;99.90;;;;;;5037805;28;20030;-76
2023/12/30 08:08:08;;;;;;;20.55;2.17;;;8.10;99.90;;;;;;5037508;28;20044;-83
2023/12/30 08:10:34;;;;;;;20.35;2.22;;;8.20;99.90;;;;;;5037335;28;20059;-74
2023/12/30 08:13:00;;;;;;;14.77;2.15;;;8.20;99.90;;;;;;5036002;28;20495;-74
2023/12/30 08:15:26;;;;;;;21.50;2.05;;;8.20;99.90;;;;;;5037378;28;20045;-73
2023/12/30 08:17:52;;;;;;;13.70;1.80;;;8.30;99.90;;;;;;5036927;28;20553;-74
2023/12/30 08:20:18;;;;;;;18.45;2.75;;;8.30;99.90;;;;;;5036063;28;20112;-73
2023/12/30 08:22:44;;;;;;;13.27;2.15;;;8.30;99.90;;;;;;5036768;28;20021;-75
2023/12/30 08:25:10;;;;;;;17.45;2.75;;;8.40;99.90;;;;;;5037118;28;20440;-76
2023/12/30 08:27:36;;;;;;;19.23;2.03;;;8.40;99.90;;;;;;5036531;28;20432;-74
2023/12/30 08:30:03;;;;;;;16.80;2.10;;;8.40;99.90;;;;;;5036639;28;20061;-73
2023/12/30 08:32:28;;;;;;;19.23;2.38;;;8.40;99.90;;;;;;5036812;28;20091;-73
2023/12/30 08:34:54;;;;;;;20.35;2.05;;;8.40;99.90;;;;;;5036895;28;20033;-73
2023/12/30 08:37:20;;;;;;;17.23;2.22;;;8.30;99.90;;;;;;5037039;28;20022;-74
2023/12/30 08:39:46;;;;;;;20.13;2.55;;;8.30;99.90;;;;;;5036591;28;20033;-73
2023/12/30 08:42:11;;;;;;;20.23;2.78;;;8.30;99.90;;;;;;5036647;28;20041;-73
2023/12/30 08:44:43;;;;;;;14.65;1.98;;;8.30;99.90;;;;;;5036732;28;20044;-73
2023/12/30 08:47:09;;;;;;;13.48;2.72;;;8.30;99.90;;;;;;5036442;28;20056;-74
2023/12/30 08:49:36;;;;;;;16.45;1.58;;;8.30;99.90;;;;;;5035240;28;20055;-75
2023/12/30 08:52:03;;;;;;;14.30;1.88;;;8.30;99.90;;;;;;5036153;28;20467;-75
2023/12/30 08:54:29;;;;;;;21.10;2.50;;;8.30;99.90;;;;;;5036128;28;20032;-74
2023/12/30 08:56:54;;;;;;;16.92;2.53;;;8.40;99.90;;;;;;5036343;28;20037;-75
2023/12/30 08:59:21;;;;;;;15.07;1.92;;;8.40;99.90;;;;;;5035151;28;20035;-74
2023/12/30 09:01:48;;;;;;;17.13;2.17;;;8.40;99.90;;;;;;5037175;28;20033;-74
2023/12/30 09:04:14;;;;;;;19.25;2.30;;;8.40;99.90;;;;;;5036722;28;20036;-74
2023/12/30 09:06:40;;;;;;;11.75;2.10;;;8.40;99.90;;;;;;5035975;28;20112;-74
2023/12/30 09:09:06;;;;;;;17.15;2.33;;;8.40;99.90;;;;;;5035257;28;20452;-76
2023/12/30 09:11:37;;;;;;;16.00;1.92;;;8.50;99.90;;;;;;5035739;28;20025;-76
2023/12/30 09:14:04;;;;;;;17.60;1.60;;;8.50;99.90;;;;;;5036541;28;20116;-76
2023/12/30 09:16:30;;;;;;;18.65;2.00;;;8.50;99.90;;;;;;5034657;28;20557;-75
2023/12/30 09:18:56;;;;;;;14.18;1.73;;;8.50;99.90;;;;;;5035433;28;20030;-78
2023/12/30 09:21:21;;;;;;;14.00;2.33;;;8.50;99.90;;;;;;5035304;28;20026;-81
2023/12/30 09:23:47;;;;;;;18.60;1.67;;;8.50;99.90;;;;;;5035350;28;20083;-80
2023/12/30 09:26:14;;;;;;;17.10;1.85;;;8.50;99.90;;;;;;5034708;28;20075;-81
2023/12/30 09:28:39;;;;;;;11.45;1.60;;;8.60;99.90;;;;;;5035179;28;20032;-81
2023/12/30 09:31:05;;;;;;;19.73;1.95;;;8.60;99.90;;;;;;5035518;28;20473;-81
2023/12/30 09:33:31;;;;;;;11.93;1.77;;;8.60;99.90;;;;;;5034964;28;20040;-76
2023/12/30 09:35:57;;;;;;;13.98;1.33;;;8.70;99.90;;;;;;5033370;28;20029;-81
2023/12/30 09:38:23;;;;;;;19.00;2.20;;;8.70;99.90;;;;;;5035009;28;20079;-81
2023/12/30 09:40:56;;;;;;;14.98;1.95;;;8.80;99.90;;;;;;5033056;28;20447;-81
2023/12/30 09:43:27;;;;;;;17.55;2.00;;;8.80;99.90;;;;;;5034502;28;20175;-81
2023/12/30 09:45:55;;;;;;;17.75;2.35;;;8.80;99.90;;;;;;5032919;28;20033;-78
2023/12/30 09:48:26;;;;;;;11.75;1.42;;;8.80;99.90;;;;;;5034348;28;20029;-77
2023/12/30 09:50:53;;;;;;;14.82;2.42;;;8.80;99.90;;;;;;5034629;28;20030;-77
2023/12/30 09:53:22;;;;;;;15.70;1.95;;;8.80;99.90;;;;;;5032961;28;20191;-76
2023/12/30 09:55:48;;;;;;;19.70;2.40;;;8.80;99.90;;;;;;5035043;28;20037;-77
2023/12/30 09:58:14;;;;;;;14.93;2.78;;;8.80;99.90;;;;;;5034178;28;20030;-78
2023/12/30 10:00:43;;;;;;;14.85;2.47;;;8.80;99.90;;;;;;5034219;28;20030;-77
2023/12/30 10:03:13;;;;;;;16.73;1.85;;;8.90;99.90;;;;;;5034713;28;20044;-77
2023/12/30 10:05:39;;;;;;;14.88;1.65;;;9.00;99.90;;;;;;5034162;28;20418;-77
2023/12/30 10:08:05;;;;;;;12.82;1.70;;;9.00;99.90;;;;;;5032631;28;20579;-76
2023/12/30 10:10:45;;;;;;;17.00;2.30;;;9.00;99.90;;;;;;5033721;28;20495;-76
2023/12/30 10:13:12;;;;;;;12.43;1.95;;;9.00;99.90;;;;;;5032749;28;20033;-77
2023/12/30 10:15:39;;;;;;;14.13;2.33;;;9.10;99.90;;;;;;4995577;28;1103653;-78
2023/12/30 10:18:07;;;;;;;15.18;2.35;;;9.10;99.90;;;;;;5034873;28;20037;-76
2023/12/30 10:20:35;;;;;;;22.00;2.08;;;9.10;99.90;;;;;;5035541;28;20033;-77
2023/12/30 10:23:01;;;;;;;15.90;2.00;;;9.10;99.90;;;;;;5033080;28;20509;-77
2023/12/30 10:25:27;;;;;;;7.00;1.13;;;9.10;99.90;;;;;;5033178;28;20128;-73
2023/12/30 10:27:53;;;;;;;13.63;1.40;;;9.20;99.90;;;;;;5033514;28;20108;-74
2023/12/30 10:30:19;;;;;;;18.40;2.13;;;9.20;99.90;;;;;;5034690;28;20162;-74
2023/12/30 10:32:46;;;;;;;11.80;1.67;;;9.20;99.90;;;;;;5034651;28;20041;-75
2023/12/30 10:35:15;;;;;;;16.08;2.03;;;9.30;99.90;;;;;;5034661;28;20383;-74
2023/12/30 10:37:42;;;;;;;13.48;1.27;;;9.30;99.90;;;;;;5033028;28;20030;-74
2023/12/30 10:40:12;;;;;;;15.95;2.17;;;9.30;99.90;;;;;;5034474;28;20080;-74
2023/12/30 10:42:40;;;;;;;20.67;1.92;;;9.30;99.90;;;;;;5034460;28;20036;-74
2023/12/30 10:45:07;;;;;;;15.68;2.00;;;9.30;99.90;;;;;;5035154;28;20034;-74
2023/12/30 10:47:39;;;;;;;18.23;1.88;;;9.30;99.90;;;;;;5034155;28;20042;-74
2023/12/30 10:50:07;;;;;;;21.65;2.15;;;9.30;99.90;;;;;;5034780;28;20029;-73
2023/12/30 10:52:36;;;;;;;15.32;2.13;;;9.30;99.90;;;;;;5034477;28;20068;-74
2023/12/30 10:55:14;;;;;;;16.23;2.00;;;9.30;99.90;;;;;;5037381;28;20038;-77
2023/12/30 10:57:48;;;;;;;15.57;2.67;;;9.30;99.90;;;;;;5033968;28;20082;-75
2023/12/30 11:00:18;;;;;;;24.00;2.53;;;9.30;99.90;;;;;;5033296;28;20036;-79
2023/12/30 11:02:46;;;;;;;17.88;3.30;;;9.30;99.90;;;;;;5037042;28;20026;-79
2023/12/30 11:05:27;;;;;;;12.75;1.95;;;9.30;99.90;;;;;;5035130;28;20030;-79
2023/12/30 11:07:54;;;;;;;20.85;2.42;;;9.30;99.90;;;;;;5034482;28;20423;-75
2023/12/30 11:10:21;;;;;;;15.48;1.83;;;9.30;99.90;;;;;;5034043;28;20025;-78
2023/12/30 11:12:47;;;;;;;20.77;2.85;;;9.30;99.90;;;;;;5034155;28;20129;-79
2023/12/30 11:15:28;;;;;;;13.80;2.35;;;9.30;99.90;;;;;;5033229;28;20120;-75
2023/12/30 11:17:57;;;;;;;16.27;2.00;;;9.30;99.90;;;;;;5034276;28;20052;-75
2023/12/30 11:20:32;;;;;;;14.30;2.17;;;9.30;99.90;;;;;;5032634;28;20411;-74
2023/12/30 11:23:01;;;;;;;20.52;2.88;;;9.30;99.90;;;;;;5034111;28;20160;-75
2023/12/30 11:25:47;;;;;;;16.63;2.65;;;9.30;99.90;;;;;;5033964;28;20040;-74
2023/12/30 11:28:14;;;;;;;25.50;4.28;;;9.40;99.90;;;;;;5033956;28;20037;-73
2023/12/30 11:30:42;;;;;;;18.27;2.40;;;9.40;99.90;;;;;;5033683;28;20029;-74
2023/12/30 11:33:08;;;;;;;11.82;2.30;;;9.50;99.90;;;;;;5033764;28;20041;-74
2023/12/30 11:35:34;;;;;;;17.15;2.83;;;9.50;99.90;;;;;;5032788;28;20064;-74
2023/12/30 11:38:01;;;;;;;18.60;2.92;;;9.50;99.90;;;;;;5015937;28;20360;-74
2023/12/30 11:40:28;;;;;;;14.68;3.25;;;9.60;99.90;;;;;;5033702;28;20088;-73
2023/12/30 11:42:54;;;;;;;14.63;3.03;;;9.60;99.90;;;;;;5032835;28;20057;-78
2023/12/30 11:45:21;;;;;;;22.02;3.28;;;9.60;99.90;;;;;;5032232;28;20205;-75
2023/12/30 11:47:47;;;;;;;21.60;3.50;;;9.60;99.90;;;;;;5032159;28;20029;-74
2023/12/30 11:50:13;;;;;;;24.23;3.40;;;9.60;99.90;;;;;;4999388;28;20530;-75
2023/12/30 11:52:46;;;;;;;22.90;3.85;;;9.60;99.90;;;;;;5033319;28;20460;-74
2023/12/30 11:55:12;;;;;;;21.17;2.95;;;9.60;99.90;;;;;;5033753;28;20032;-76
2023/12/30 11:57:37;;;;;;;22.02;4.22;;;9.60;99.90;;;;;;5033351;28;20460;-76
2023/12/30 12:00:06;;;;;;;31.27;4.28;;;9.70;99.90;;;;;;5031783;28;20033;-74
2023/12/30 12:02:32;;;;;;;21.33;4.93;;;9.70;99.90;;;;;;5033448;28;20030;-74
2023/12/30 12:04:58;;;;;;;26.60;4.10;;;9.60;99.90;;;;;;5031920;28;20080;-75
2023/12/30 12:07:23;;;;;;;18.50;4.03;;;9.70;99.90;;;;;;5031959;28;20040;-74
2023/12/30 12:09:49;;;;;;;17.00;4.13;;;9.70;99.90;;;;;;5033421;28;20423;-75
2023/12/30 12:12:21;;;;;;;23.75;4.63;;;9.70;99.90;;;;;;5033816;28;20566;-76
2023/12/30 12:14:49;;;;;;;21.70;5.03;;;9.70;99.90;;;;;;5032403;28;20054;-73
2023/12/30 12:17:14;;;;;;;17.20;4.20;;;9.70;99.90;;;;;;5033625;28;20049;-76
2023/12/30 12:19:40;;;;;;;24.27;4.40;;;9.70;99.90;;;;;;5032930;28;20117;-75
2023/12/30 12:22:06;;;;;;;22.85;5.18;;;9.70;99.90;;;;;;5031922;28;20033;-76
2023/12/30 12:24:32;;;;;;;28.35;5.80;;;9.70;99.90;;;;;;5033430;28;20091;-75
2023/12/30 12:26:58;;;;;;;21.98;4.38;;;9.70;99.90;;;;;;5032637;28;20117;-75
2023/12/30 12:29:23;;;;;;;23.98;4.95;;;9.70;99.90;;;;;;5033099;28;20030;-75
2023/12/30 12:31:50;;;;;;;22.77;4.68;;;9.80;99.90;;;;;;5015341;28;20025;-75
2023/12/30 12:34:20;;;;;;;23.92;4.65;;;9.80;99.90;;;;;;5033015;28;20025;-75
2023/12/30 12:36:46;;;;;;;20.92;4.78;;;9.80;99.90;;;;;;5033110;28;20029;-76
2023/12/30 12:39:12;;;;;;;21.27;4.95;;;9.80;99.90;;;;;;5031825;28;20033;-74
2023/12/30 12:41:38;;;;;;;17.35;4.30;;;9.80;99.90;;;;;;5032876;28;20470;-74
2023/12/30 12:44:04;;;;;;;30.15;5.30;;;9.80;99.90;;;;;;5032830;28;20036;-75